sensor_id;sensor_type;location;lat;lon;timestamp;P1;P2;P0
65383;PMS5003;51986;52.788;41.368;2022-11-20T00:01:17;7.75;7.75;7.00
65383;PMS5003;51986;52.788;41.368;2022-11-20T00:03:50;3.75;3.75;3.00
65383;PMS5003;51986;52.788;41.368;2022-11-20T00:06:19;9.50;9.50;8.25
65383;PMS5003;51986;52.788;41.368;2022-11-20T00:08:47;14.00;14.00;13.00
65383;PMS5003;51986;52.788;41.368;2022-11-20T00:11:23;7.25;7.25;5.75
65383;PMS5003;51986;52.788;41.368;2022-11-20T00:13:52;3.00;3.00;2.00
65383;PMS5003;51986;52.788;41.368;2022-11-20T00:16:22;8.75;8.75;7.25
65383;PMS5003;51986;52.788;41.368;2022-11-20T00:18:51;11.50;11.00;10.00
65383;PMS5003;51986;52.788;41.368;2022-11-20T00:21:22;6.50;6.00;5.75
65383;PMS5003;51986;52.788;41.368;2022-11-20T00:23:50;7.00;7.00;6.75
65383;PMS5003;51986;52.788;41.368;2022-11-20T00:26:21;4.00;4.00;3.75
65383;PMS5003;51986;52.788;41.368;2022-11-20T00:28:56;2.25;1.50;1.50
65383;PMS5003;51986;52.788;41.368;2022-11-20T00:31:25;9.67;9.00;9.00
65383;PMS5003;51986;52.788;41.368;2022-11-20T00:33:52;13.00;12.00;12.00
65383;PMS5003;51986;52.788;41.368;2022-11-20T00:36:20;9.00;8.25;7.00
65383;PMS5003;51986;52.788;41.368;2022-11-20T00:38:52;10.00;10.00;9.50
65383;PMS5003;51986;52.788;41.368;2022-11-20T00:41:24;12.75;12.75;12.00
65383;PMS5003;51986;52.788;41.368;2022-11-20T00:43:52;8.25;8.25;7.25
65383;PMS5003;51986;52.788;41.368;2022-11-20T00:46:24;7.25;7.25;7.25
65383;PMS5003;51986;52.788;41.368;2022-11-20T00:48:53;14.00;14.00;13.00
65383;PMS5003;51986;52.788;41.368;2022-11-20T00:51:21;13.00;13.00;12.00
65383;PMS5003;51986;52.788;41.368;2022-11-20T00:53:49;6.00;6.00;6.00
65383;PMS5003;51986;52.788;41.368;2022-11-20T00:56:18;6.00;6.00;6.00
65383;PMS5003;51986;52.788;41.368;2022-11-20T00:58:46;12.25;12.25;11.75
65383;PMS5003;51986;52.788;41.368;2022-11-20T01:01:15;11.50;11.50;10.50
65383;PMS5003;51986;52.788;41.368;2022-11-20T01:03:46;6.00;6.00;5.00
65383;PMS5003;51986;52.788;41.368;2022-11-20T01:06:16;11.75;10.75;10.75
65383;PMS5003;51986;52.788;41.368;2022-11-20T01:08:43;8.50;8.00;7.50
65383;PMS5003;51986;52.788;41.368;2022-11-20T01:11:13;8.50;8.00;7.75
65383;PMS5003;51986;52.788;41.368;2022-11-20T01:13:41;12.75;12.00;10.75
65383;PMS5003;51986;52.788;41.368;2022-11-20T01:16:10;10.75;10.75;10.00
65383;PMS5003;51986;52.788;41.368;2022-11-20T01:18:39;11.00;10.25;10.00
65383;PMS5003;51986;52.788;41.368;2022-11-20T01:21:09;13.75;13.00;12.00
65383;PMS5003;51986;52.788;41.368;2022-11-20T01:23:41;15.75;15.75;14.00
65383;PMS5003;51986;52.788;41.368;2022-11-20T01:26:10;12.00;12.00;10.00
65383;PMS5003;51986;52.788;41.368;2022-11-20T01:28:39;8.00;8.00;8.00
65383;PMS5003;51986;52.788;41.368;2022-11-20T01:31:26;6.25;6.25;6.00
65383;PMS5003;51986;52.788;41.368;2022-11-20T01:33:59;13.75;13.75;12.75
65383;PMS5003;51986;52.788;41.368;2022-11-20T01:36:29;14.75;13.50;13.00
65383;PMS5003;51986;52.788;41.368;2022-11-20T01:38:58;11.00;10.00;8.25
65383;PMS5003;51986;52.788;41.368;2022-11-20T01:41:29;16.25;15.75;13.75
65383;PMS5003;51986;52.788;41.368;2022-11-20T01:43:58;18.00;18.00;15.00
65383;PMS5003;51986;52.788;41.368;2022-11-20T01:46:25;12.50;12.50;12.00
65383;PMS5003;51986;52.788;41.368;2022-11-20T01:48:57;12.50;12.50;12.00
65383;PMS5003;51986;52.788;41.368;2022-11-20T01:51:50;10.00;10.00;8.00
65383;PMS5003;51986;52.788;41.368;2022-11-20T01:57:22;12.75;12.75;9.50
65383;PMS5003;51986;52.788;41.368;2022-11-20T01:59:54;14.75;14.00;12.50
65383;PMS5003;51986;52.788;41.368;2022-11-20T02:02:26;8.25;7.50;6.25
65383;PMS5003;51986;52.788;41.368;2022-11-20T02:04:54;6.00;6.00;5.00
65383;PMS5003;51986;52.788;41.368;2022-11-20T02:07:26;8.00;8.00;6.50
65383;PMS5003;51986;52.788;41.368;2022-11-20T02:09:54;14.00;14.00;12.50
65383;PMS5003;51986;52.788;41.368;2022-11-20T02:12:24;15.00;14.00;13.00
65383;PMS5003;51986;52.788;41.368;2022-11-20T02:14:51;10.25;10.00;8.00
65383;PMS5003;51986;52.788;41.368;2022-11-20T02:17:18;14.25;14.25;12.25
65383;PMS5003;51986;52.788;41.368;2022-11-20T02:19:45;16.50;16.00;13.00
65383;PMS5003;51986;52.788;41.368;2022-11-20T02:22:23;13.75;13.75;12.00
65383;PMS5003;51986;52.788;41.368;2022-11-20T02:24:55;11.00;11.00;8.00
65383;PMS5003;51986;52.788;41.368;2022-11-20T02:27:25;14.00;14.00;11.75
65383;PMS5003;51986;52.788;41.368;2022-11-20T02:29:53;15.50;15.50;13.25
65383;PMS5003;51986;52.788;41.368;2022-11-20T02:32:32;12.00;12.00;12.00
65383;PMS5003;51986;52.788;41.368;2022-11-20T02:35:08;10.00;10.00;9.00
65383;PMS5003;51986;52.788;41.368;2022-11-20T02:37:37;15.25;14.25;12.75
65383;PMS5003;51986;52.788;41.368;2022-11-20T02:40:05;13.00;12.00;10.00
65383;PMS5003;51986;52.788;41.368;2022-11-20T02:42:33;12.00;11.00;9.00
65383;PMS5003;51986;52.788;41.368;2022-11-20T02:45:01;11.00;10.00;8.00
65383;PMS5003;51986;52.788;41.368;2022-11-20T02:47:28;15.25;14.50;12.75
65383;PMS5003;51986;52.788;41.368;2022-11-20T02:49:55;12.00;12.00;10.00
65383;PMS5003;51986;52.788;41.368;2022-11-20T02:52:22;18.50;17.50;14.00
65383;PMS5003;51986;52.788;41.368;2022-11-20T02:54:50;18.00;17.00;14.00
65383;PMS5003;51986;52.788;41.368;2022-11-20T02:57:17;18.00;16.50;14.00
65383;PMS5003;51986;52.788;41.368;2022-11-20T02:59:44;19.00;18.00;14.00
65383;PMS5003;51986;52.788;41.368;2022-11-20T03:02:11;19.25;18.00;15.00
65383;PMS5003;51986;52.788;41.368;2022-11-20T03:04:37;14.25;14.25;13.50
65383;PMS5003;51986;52.788;41.368;2022-11-20T03:07:04;13.75;13.75;12.00
65383;PMS5003;51986;52.788;41.368;2022-11-20T03:09:31;18.00;15.50;14.00
65383;PMS5003;51986;52.788;41.368;2022-11-20T03:11:58;14.00;12.00;12.00
65383;PMS5003;51986;52.788;41.368;2022-11-20T03:14:25;16.25;15.00;13.25
65383;PMS5003;51986;52.788;41.368;2022-11-20T03:16:52;13.75;13.50;12.00
65383;PMS5003;51986;52.788;41.368;2022-11-20T03:19:19;11.25;11.25;10.25
65383;PMS5003;51986;52.788;41.368;2022-11-20T03:21:47;8.00;8.00;6.00
65383;PMS5003;51986;52.788;41.368;2022-11-20T03:24:13;13.00;12.75;11.50
65383;PMS5003;51986;52.788;41.368;2022-11-20T03:26:41;10.00;10.00;6.75
65383;PMS5003;51986;52.788;41.368;2022-11-20T03:29:08;12.00;12.00;10.00
65383;PMS5003;51986;52.788;41.368;2022-11-20T03:31:36;15.50;14.75;13.00
65383;PMS5003;51986;52.788;41.368;2022-11-20T03:34:05;13.50;13.00;11.00
65383;PMS5003;51986;52.788;41.368;2022-11-20T03:36:32;8.00;8.00;6.00
65383;PMS5003;51986;52.788;41.368;2022-11-20T03:38:59;9.00;8.50;6.00
65383;PMS5003;51986;52.788;41.368;2022-11-20T03:41:27;11.50;11.00;8.25
65383;PMS5003;51986;52.788;41.368;2022-11-20T03:43:57;11.00;10.00;8.00
65383;PMS5003;51986;52.788;41.368;2022-11-20T03:46:26;11.75;10.00;8.00
65383;PMS5003;51986;52.788;41.368;2022-11-20T03:48:55;8.00;6.00;5.00
65383;PMS5003;51986;52.788;41.368;2022-11-20T03:51:23;13.25;12.00;11.25
65383;PMS5003;51986;52.788;41.368;2022-11-20T03:53:53;15.50;14.00;12.50
65383;PMS5003;51986;52.788;41.368;2022-11-20T03:56:23;21.00;19.00;16.00
65383;PMS5003;51986;52.788;41.368;2022-11-20T03:58:51;20.75;19.00;15.75
65383;PMS5003;51986;52.788;41.368;2022-11-20T04:01:20;19.00;18.00;15.00
65383;PMS5003;51986;52.788;41.368;2022-11-20T04:03:49;12.50;12.00;9.50
65383;PMS5003;51986;52.788;41.368;2022-11-20T04:06:20;12.75;12.00;10.00
65383;PMS5003;51986;52.788;41.368;2022-11-20T04:08:48;14.25;14.00;12.00
65383;PMS5003;51986;52.788;41.368;2022-11-20T04:11:23;16.00;16.00;12.00
65383;PMS5003;51986;52.788;41.368;2022-11-20T04:13:56;9.25;9.25;5.75
65383;PMS5003;51986;52.788;41.368;2022-11-20T04:16:25;11.00;11.00;8.25
65383;PMS5003;51986;52.788;41.368;2022-11-20T04:18:55;6.75;5.75;5.00
65383;PMS5003;51986;52.788;41.368;2022-11-20T04:21:24;10.75;10.75;9.75
65383;PMS5003;51986;52.788;41.368;2022-11-20T04:23:53;14.25;14.00;12.00
65383;PMS5003;51986;52.788;41.368;2022-11-20T04:26:21;16.00;16.00;14.00
65383;PMS5003;51986;52.788;41.368;2022-11-20T04:28:49;7.50;7.50;5.25
65383;PMS5003;51986;52.788;41.368;2022-11-20T04:31:17;4.00;4.00;2.00
65383;PMS5003;51986;52.788;41.368;2022-11-20T04:33:46;9.00;8.00;7.00
65383;PMS5003;51986;52.788;41.368;2022-11-20T04:36:14;4.75;4.00;3.00
65383;PMS5003;51986;52.788;41.368;2022-11-20T04:38:58;3.00;3.00;3.00
65383;PMS5003;51986;52.788;41.368;2022-11-20T04:41:28;3.00;3.00;1.00
65383;PMS5003;51986;52.788;41.368;2022-11-20T04:44:00;3.00;3.00;1.00
65383;PMS5003;51986;52.788;41.368;2022-11-20T04:46:29;8.25;8.25;7.00
65383;PMS5003;51986;52.788;41.368;2022-11-20T04:49:00;14.00;14.00;13.00
65383;PMS5003;51986;52.788;41.368;2022-11-20T04:51:27;7.25;6.75;5.25
65383;PMS5003;51986;52.788;41.368;2022-11-20T04:53:54;8.25;7.00;6.25
65383;PMS5003;51986;52.788;41.368;2022-11-20T04:56:21;9.25;8.75;7.25
65383;PMS5003;51986;52.788;41.368;2022-11-20T04:58:48;10.75;10.00;9.00
65383;PMS5003;51986;52.788;41.368;2022-11-20T05:01:25;13.00;13.00;11.00
65383;PMS5003;51986;52.788;41.368;2022-11-20T05:03:52;13.00;12.00;10.00
65383;PMS5003;51986;52.788;41.368;2022-11-20T05:06:19;6.00;5.50;3.00
65383;PMS5003;51986;52.788;41.368;2022-11-20T05:08:48;7.75;7.50;5.75
65383;PMS5003;51986;52.788;41.368;2022-11-20T05:11:16;10.00;9.00;8.00
65383;PMS5003;51986;52.788;41.368;2022-11-20T05:13:45;12.00;11.00;10.00
65383;PMS5003;51986;52.788;41.368;2022-11-20T05:16:14;7.00;6.50;3.50
65383;PMS5003;51986;52.788;41.368;2022-11-20T05:18:44;5.00;5.00;3.00
65383;PMS5003;51986;52.788;41.368;2022-11-20T05:21:12;9.00;8.25;7.50
65383;PMS5003;51986;52.788;41.368;2022-11-20T05:23:39;8.00;6.00;4.75
65383;PMS5003;51986;52.788;41.368;2022-11-20T05:26:07;6.50;5.00;3.00
65383;PMS5003;51986;52.788;41.368;2022-11-20T05:28:38;10.75;9.50;7.50
65383;PMS5003;51986;52.788;41.368;2022-11-20T05:31:12;11.00;10.25;7.50
65383;PMS5003;51986;52.788;41.368;2022-11-20T05:33:42;11.75;11.00;9.00
65383;PMS5003;51986;52.788;41.368;2022-11-20T05:36:11;13.75;13.00;11.00
65383;PMS5003;51986;52.788;41.368;2022-11-20T05:38:39;10.00;7.25;4.75
65383;PMS5003;51986;52.788;41.368;2022-11-20T05:41:08;5.25;3.00;2.00
65383;PMS5003;51986;52.788;41.368;2022-11-20T05:43:38;4.50;4.00;3.00
65383;PMS5003;51986;52.788;41.368;2022-11-20T05:46:07;4.00;4.00;2.00
65383;PMS5003;51986;52.788;41.368;2022-11-20T05:48:35;10.50;8.75;7.00
65383;PMS5003;51986;52.788;41.368;2022-11-20T05:51:03;10.00;9.00;5.00
65383;PMS5003;51986;52.788;41.368;2022-11-20T05:53:33;6.00;5.00;3.00
65383;PMS5003;51986;52.788;41.368;2022-11-20T05:56:01;10.00;9.00;9.00
65383;PMS5003;51986;52.788;41.368;2022-11-20T05:58:30;9.25;9.00;7.00
65383;PMS5003;51986;52.788;41.368;2022-11-20T06:01:04;12.25;12.25;9.00
65383;PMS5003;51986;52.788;41.368;2022-11-20T06:03:39;10.75;10.75;7.00
65383;PMS5003;51986;52.788;41.368;2022-11-20T06:06:07;12.75;11.00;8.50
65383;PMS5003;51986;52.788;41.368;2022-11-20T06:08:35;9.00;8.25;5.00
65383;PMS5003;51986;52.788;41.368;2022-11-20T06:11:05;7.25;5.25;3.00
65383;PMS5003;51986;52.788;41.368;2022-11-20T06:13:34;9.00;7.50;5.50
65383;PMS5003;51986;52.788;41.368;2022-11-20T06:16:07;8.75;8.25;6.50
65383;PMS5003;51986;52.788;41.368;2022-11-20T06:18:35;7.25;6.75;3.00
65383;PMS5003;51986;52.788;41.368;2022-11-20T06:23:29;5.25;5.00;3.00
65383;PMS5003;51986;52.788;41.368;2022-11-20T06:25:58;6.75;6.75;5.25
65383;PMS5003;51986;52.788;41.368;2022-11-20T06:28:28;11.00;9.00;7.00
65383;PMS5003;51986;52.788;41.368;2022-11-20T06:30:55;9.25;9.00;7.00
65383;PMS5003;51986;52.788;41.368;2022-11-20T06:33:22;5.25;5.25;3.00
65383;PMS5003;51986;52.788;41.368;2022-11-20T06:35:49;4.00;3.50;2.50
65383;PMS5003;51986;52.788;41.368;2022-11-20T06:38:27;5.00;5.00;3.00
65383;PMS5003;51986;52.788;41.368;2022-11-20T06:40:54;5.00;4.00;1.00
65383;PMS5003;51986;52.788;41.368;2022-11-20T06:43:22;5.00;4.00;3.00
65383;PMS5003;51986;52.788;41.368;2022-11-20T06:45:53;8.50;7.25;5.25
65383;PMS5003;51986;52.788;41.368;2022-11-20T06:48:22;11.75;9.50;7.50
65383;PMS5003;51986;52.788;41.368;2022-11-20T06:50:50;11.00;7.00;5.00
65383;PMS5003;51986;52.788;41.368;2022-11-20T06:53:17;8.75;5.00;3.00
65383;PMS5003;51986;52.788;41.368;2022-11-20T06:55:45;5.00;5.00;3.00
65383;PMS5003;51986;52.788;41.368;2022-11-20T06:58:13;9.25;9.25;7.25
65383;PMS5003;51986;52.788;41.368;2022-11-20T07:00:41;13.00;12.00;11.00
65383;PMS5003;51986;52.788;41.368;2022-11-20T07:03:10;11.00;10.00;5.00
65383;PMS5003;51986;52.788;41.368;2022-11-20T07:05:37;10.00;8.00;4.25
65383;PMS5003;51986;52.788;41.368;2022-11-20T07:08:05;9.00;5.50;3.00
65383;PMS5003;51986;52.788;41.368;2022-11-20T07:10:32;8.00;5.00;3.00
65383;PMS5003;51986;52.788;41.368;2022-11-20T07:13:02;14.00;12.75;9.25
65383;PMS5003;51986;52.788;41.368;2022-11-20T07:15:29;15.00;14.50;11.00
65383;PMS5003;51986;52.788;41.368;2022-11-20T07:17:59;11.00;11.00;4.75
65383;PMS5003;51986;52.788;41.368;2022-11-20T07:20:26;11.00;9.00;3.00
65383;PMS5003;51986;52.788;41.368;2022-11-20T07:22:54;13.25;12.25;8.75
65383;PMS5003;51986;52.788;41.368;2022-11-20T07:25:25;10.50;10.00;4.50
65383;PMS5003;51986;52.788;41.368;2022-11-20T07:27:57;7.50;4.75;1.75
65383;PMS5003;51986;52.788;41.368;2022-11-20T07:30:26;8.75;7.25;4.00
65383;PMS5003;51986;52.788;41.368;2022-11-20T07:32:55;7.00;5.00;2.00
65383;PMS5003;51986;52.788;41.368;2022-11-20T07:35:23;4.00;4.00;2.00
65383;PMS5003;51986;52.788;41.368;2022-11-20T07:37:51;10.75;10.50;7.75
65383;PMS5003;51986;52.788;41.368;2022-11-20T07:40:18;11.25;11.00;8.25
65383;PMS5003;51986;52.788;41.368;2022-11-20T07:42:48;9.00;9.00;5.00
65383;PMS5003;51986;52.788;41.368;2022-11-20T07:45:20;5.00;5.00;1.00
65383;PMS5003;51986;52.788;41.368;2022-11-20T07:47:48;9.50;8.75;7.00
65383;PMS5003;51986;52.788;41.368;2022-11-20T07:50:15;10.50;9.25;7.25
65383;PMS5003;51986;52.788;41.368;2022-11-20T07:52:43;10.00;9.00;5.00
65383;PMS5003;51986;52.788;41.368;2022-11-20T07:55:10;7.75;7.75;3.00
65383;PMS5003;51986;52.788;41.368;2022-11-20T07:57:37;7.50;7.50;5.50
65383;PMS5003;51986;52.788;41.368;2022-11-20T08:00:05;11.00;10.75;9.75
65383;PMS5003;51986;52.788;41.368;2022-11-20T08:02:44;12.75;12.00;9.00
65383;PMS5003;51986;52.788;41.368;2022-11-20T08:05:11;13.00;10.00;7.00
65383;PMS5003;51986;52.788;41.368;2022-11-20T08:07:39;14.25;12.50;6.75
65383;PMS5003;51986;52.788;41.368;2022-11-20T08:10:08;11.00;10.25;3.00
65383;PMS5003;51986;52.788;41.368;2022-11-20T08:12:36;9.00;6.75;3.00
65383;PMS5003;51986;52.788;41.368;2022-11-20T08:15:10;9.00;7.00;3.00
65383;PMS5003;51986;52.788;41.368;2022-11-20T08:17:39;4.50;4.00;1.50
65383;PMS5003;51986;52.788;41.368;2022-11-20T08:20:05;9.25;8.75;5.25
65383;PMS5003;51986;52.788;41.368;2022-11-20T08:22:33;15.00;14.75;10.50
65383;PMS5003;51986;52.788;41.368;2022-11-20T08:25:00;18.00;16.00;12.50
65383;PMS5003;51986;52.788;41.368;2022-11-20T08:27:27;20.00;19.00;13.25
65383;PMS5003;51986;52.788;41.368;2022-11-20T08:29:54;15.00;14.00;11.00
65383;PMS5003;51986;52.788;41.368;2022-11-20T08:32:21;15.00;14.00;12.00
65383;PMS5003;51986;52.788;41.368;2022-11-20T08:34:48;13.25;12.50;9.25
65383;PMS5003;51986;52.788;41.368;2022-11-20T08:37:15;11.00;9.00;5.00
65383;PMS5003;51986;52.788;41.368;2022-11-20T08:39:42;11.00;9.50;6.50
65383;PMS5003;51986;52.788;41.368;2022-11-20T08:42:09;11.25;9.00;4.75
65383;PMS5003;51986;52.788;41.368;2022-11-20T08:44:36;11.00;7.75;3.25
65383;PMS5003;51986;52.788;41.368;2022-11-20T08:47:03;14.25;11.00;9.00
65383;PMS5003;51986;52.788;41.368;2022-11-20T08:49:30;15.75;13.00;9.00
65383;PMS5003;51986;52.788;41.368;2022-11-20T08:51:57;15.00;12.75;9.25
65383;PMS5003;51986;52.788;41.368;2022-11-20T08:54:24;11.00;10.50;6.00
65383;PMS5003;51986;52.788;41.368;2022-11-20T08:56:51;15.25;13.50;10.00
65383;PMS5003;51986;52.788;41.368;2022-11-20T08:59:18;16.00;16.00;12.00
65383;PMS5003;51986;52.788;41.368;2022-11-20T09:02:05;15.25;15.00;12.00
65383;PMS5003;51986;52.788;41.368;2022-11-20T09:04:32;11.00;10.00;7.00
65383;PMS5003;51986;52.788;41.368;2022-11-20T09:06:59;11.00;10.25;5.00
65383;PMS5003;51986;52.788;41.368;2022-11-20T09:09:29;11.00;7.00;3.00
65383;PMS5003;51986;52.788;41.368;2022-11-20T09:11:56;12.00;10.00;7.25
65383;PMS5003;51986;52.788;41.368;2022-11-20T09:14:23;12.00;11.00;6.25
65383;PMS5003;51986;52.788;41.368;2022-11-20T09:16:51;11.75;10.00;5.50
65383;PMS5003;51986;52.788;41.368;2022-11-20T09:19:18;12.00;11.00;8.00
65383;PMS5003;51986;52.788;41.368;2022-11-20T09:22:01;15.00;13.00;11.00
65383;PMS5003;51986;52.788;41.368;2022-11-20T09:24:28;11.75;11.75;7.00
65383;PMS5003;51986;52.788;41.368;2022-11-20T09:26:54;14.00;12.75;8.75
65383;PMS5003;51986;52.788;41.368;2022-11-20T09:29:21;11.50;11.00;6.50
65383;PMS5003;51986;52.788;41.368;2022-11-20T09:31:49;10.00;9.00;4.00
65383;PMS5003;51986;52.788;41.368;2022-11-20T09:34:16;9.00;9.00;4.00
65383;PMS5003;51986;52.788;41.368;2022-11-20T09:36:43;12.75;11.50;8.50
65383;PMS5003;51986;52.788;41.368;2022-11-20T09:39:10;13.00;11.50;7.50
65383;PMS5003;51986;52.788;41.368;2022-11-20T09:50:23;5.00;4.75;2.75
65383;PMS5003;51986;52.788;41.368;2022-11-20T09:55:56;16.50;16.00;13.00
65383;PMS5003;51986;52.788;41.368;2022-11-20T10:01:30;18.25;16.00;13.00
65383;PMS5003;51986;52.788;41.368;2022-11-20T10:04:06;19.00;18.00;14.00
65383;PMS5003;51986;52.788;41.368;2022-11-20T10:09:52;10.00;7.75;3.00
65383;PMS5003;51986;52.788;41.368;2022-11-20T10:18:30;13.75;13.00;9.00
65383;PMS5003;51986;52.788;41.368;2022-11-20T10:23:59;11.25;9.25;3.50
65383;PMS5003;51986;52.788;41.368;2022-11-20T10:31:57;14.00;11.00;9.00
65383;PMS5003;51986;52.788;41.368;2022-11-20T10:37:25;15.00;13.00;8.00
65383;PMS5003;51986;52.788;41.368;2022-11-20T10:40:03;14.50;12.00;7.00
65383;PMS5003;51986;52.788;41.368;2022-11-20T10:42:46;15.00;13.75;9.00
65383;PMS5003;51986;52.788;41.368;2022-11-20T10:50:36;9.00;9.00;4.00
65383;PMS5003;51986;52.788;41.368;2022-11-20T11:01:17;11.00;9.50;6.50
65383;PMS5003;51986;52.788;41.368;2022-11-20T11:03:46;12.00;10.00;5.00
65383;PMS5003;51986;52.788;41.368;2022-11-20T11:09:09;12.25;9.50;4.75
65383;PMS5003;51986;52.788;41.368;2022-11-20T11:11:42;9.00;6.50;3.00
65383;PMS5003;51986;52.788;41.368;2022-11-20T11:14:11;12.50;9.00;5.50
65383;PMS5003;51986;52.788;41.368;2022-11-20T11:16:53;16.00;15.00;11.00
65383;PMS5003;51986;52.788;41.368;2022-11-20T11:19:21;16.00;14.25;12.00
65383;PMS5003;51986;52.788;41.368;2022-11-20T11:21:58;17.00;15.50;12.00
65383;PMS5003;51986;52.788;41.368;2022-11-20T11:24:27;12.50;12.50;9.25
65383;PMS5003;51986;52.788;41.368;2022-11-20T11:27:12;10.50;10.50;5.00
65383;PMS5003;51986;52.788;41.368;2022-11-20T11:29:43;13.50;13.50;9.25
65383;PMS5003;51986;52.788;41.368;2022-11-20T11:32:18;11.25;10.25;6.50
65383;PMS5003;51986;52.788;41.368;2022-11-20T11:34:59;13.00;11.00;6.75
65383;PMS5003;51986;52.788;41.368;2022-11-20T11:37:34;10.75;10.25;5.00
65383;PMS5003;51986;52.788;41.368;2022-11-20T11:40:04;7.75;7.75;4.00
65383;PMS5003;51986;52.788;41.368;2022-11-20T11:42:57;11.00;10.75;7.25
65383;PMS5003;51986;52.788;41.368;2022-11-20T11:45:28;12.00;11.00;5.00
65383;PMS5003;51986;52.788;41.368;2022-11-20T11:47:58;12.50;12.25;7.75
65383;PMS5003;51986;52.788;41.368;2022-11-20T11:50:29;16.00;16.00;10.00
65383;PMS5003;51986;52.788;41.368;2022-11-20T11:53:02;16.00;14.00;9.00
65383;PMS5003;51986;52.788;41.368;2022-11-20T12:00:31;9.50;9.00;5.75
65383;PMS5003;51986;52.788;41.368;2022-11-20T12:03:12;14.25;14.25;10.50
65383;PMS5003;51986;52.788;41.368;2022-11-20T12:08:49;13.00;12.00;6.50
65383;PMS5003;51986;52.788;41.368;2022-11-20T12:11:24;12.50;11.00;3.00
65383;PMS5003;51986;52.788;41.368;2022-11-20T12:16:36;16.75;15.00;9.00
65383;PMS5003;51986;52.788;41.368;2022-11-20T12:19:12;12.00;11.00;5.25
65383;PMS5003;51986;52.788;41.368;2022-11-20T12:21:50;13.00;13.00;8.75
65383;PMS5003;51986;52.788;41.368;2022-11-20T12:30:17;14.50;12.75;9.50
65383;PMS5003;51986;52.788;41.368;2022-11-20T12:32:50;14.25;13.75;9.00
65383;PMS5003;51986;52.788;41.368;2022-11-20T12:43:44;9.00;6.00;3.00
65383;PMS5003;51986;52.788;41.368;2022-11-20T12:46:36;14.00;11.25;9.50
65383;PMS5003;51986;52.788;41.368;2022-11-20T12:49:23;17.75;15.00;12.00
65383;PMS5003;51986;52.788;41.368;2022-11-20T12:52:18;9.50;9.25;5.75
65383;PMS5003;51986;52.788;41.368;2022-11-20T13:00:23;5.00;5.00;2.25
65383;PMS5003;51986;52.788;41.368;2022-11-20T13:08:08;9.75;7.50;3.00
65383;PMS5003;51986;52.788;41.368;2022-11-20T13:16:33;10.75;9.00;4.00
65383;PMS5003;51986;52.788;41.368;2022-11-20T13:19:10;15.00;13.00;8.25
65383;PMS5003;51986;52.788;41.368;2022-11-20T13:21:40;13.00;11.00;5.00
65383;PMS5003;51986;52.788;41.368;2022-11-20T13:26:46;8.75;7.25;5.25
65383;PMS5003;51986;52.788;41.368;2022-11-20T13:29:17;13.50;13.50;10.00
65383;PMS5003;51986;52.788;41.368;2022-11-20T13:31:48;17.00;15.00;11.00
65383;PMS5003;51986;52.788;41.368;2022-11-20T13:34:25;13.75;11.00;5.00
65383;PMS5003;51986;52.788;41.368;2022-11-20T13:36:54;15.00;13.00;9.50
65383;PMS5003;51986;52.788;41.368;2022-11-20T13:39:32;11.25;9.00;5.00
65383;PMS5003;51986;52.788;41.368;2022-11-20T13:42:24;11.00;7.00;4.00
65383;PMS5003;51986;52.788;41.368;2022-11-20T13:44:54;9.25;5.50;4.00
65383;PMS5003;51986;52.788;41.368;2022-11-20T13:47:26;11.00;8.75;4.00
65383;PMS5003;51986;52.788;41.368;2022-11-20T13:49:55;11.50;9.00;5.50
65383;PMS5003;51986;52.788;41.368;2022-11-20T13:55:38;11.00;8.75;3.00
65383;PMS5003;51986;52.788;41.368;2022-11-20T13:58:24;10.75;7.00;3.00
65383;PMS5003;51986;52.788;41.368;2022-11-20T14:01:15;14.25;11.50;8.50
65383;PMS5003;51986;52.788;41.368;2022-11-20T14:03:46;13.00;9.00;5.00
65383;PMS5003;51986;52.788;41.368;2022-11-20T14:06:33;12.00;9.00;3.00
65383;PMS5003;51986;52.788;41.368;2022-11-20T14:09:25;16.00;13.75;9.25
65383;PMS5003;51986;52.788;41.368;2022-11-20T14:11:53;15.00;12.75;6.25
65383;PMS5003;51986;52.788;41.368;2022-11-20T14:14:25;16.75;14.50;10.75
65383;PMS5003;51986;52.788;41.368;2022-11-20T14:17:05;13.00;11.00;8.50
65383;PMS5003;51986;52.788;41.368;2022-11-20T14:19:33;13.50;12.00;6.00
65383;PMS5003;51986;52.788;41.368;2022-11-20T14:22:08;16.25;14.00;9.75
65383;PMS5003;51986;52.788;41.368;2022-11-20T14:25:01;13.00;12.00;7.00
65383;PMS5003;51986;52.788;41.368;2022-11-20T14:27:37;10.00;9.25;3.00
65383;PMS5003;51986;52.788;41.368;2022-11-20T14:30:11;13.25;10.50;8.00
65383;PMS5003;51986;52.788;41.368;2022-11-20T14:32:41;16.25;13.00;10.00
65383;PMS5003;51986;52.788;41.368;2022-11-20T14:35:15;16.25;14.00;11.25
65383;PMS5003;51986;52.788;41.368;2022-11-20T14:37:48;15.75;15.00;11.00
65383;PMS5003;51986;52.788;41.368;2022-11-20T14:40:28;13.50;13.00;9.00
65383;PMS5003;51986;52.788;41.368;2022-11-20T14:42:57;17.00;16.75;11.00
65383;PMS5003;51986;52.788;41.368;2022-11-20T14:45:25;15.00;15.00;9.25
65383;PMS5003;51986;52.788;41.368;2022-11-20T14:47:54;14.50;13.25;8.25
65383;PMS5003;51986;52.788;41.368;2022-11-20T14:50:24;13.00;11.75;6.00
65383;PMS5003;51986;52.788;41.368;2022-11-20T14:52:54;13.00;11.00;5.00
65383;PMS5003;51986;52.788;41.368;2022-11-20T14:58:00;15.00;12.00;6.75
65383;PMS5003;51986;52.788;41.368;2022-11-20T15:00:32;17.00;14.50;9.00
65383;PMS5003;51986;52.788;41.368;2022-11-20T15:03:01;17.00;17.00;11.00
65383;PMS5003;51986;52.788;41.368;2022-11-20T15:05:44;17.00;15.00;9.00
65383;PMS5003;51986;52.788;41.368;2022-11-20T15:08:13;13.75;12.00;6.25
65383;PMS5003;51986;52.788;41.368;2022-11-20T15:10:45;14.00;11.75;7.00
65383;PMS5003;51986;52.788;41.368;2022-11-20T15:13:15;13.00;12.00;6.00
65383;PMS5003;51986;52.788;41.368;2022-11-20T15:15:55;14.25;12.75;7.00
65383;PMS5003;51986;52.788;41.368;2022-11-20T15:18:36;14.00;13.00;5.00
65383;PMS5003;51986;52.788;41.368;2022-11-20T15:21:12;11.00;11.00;4.00
65383;PMS5003;51986;52.788;41.368;2022-11-20T15:23:41;12.00;11.75;5.00
65383;PMS5003;51986;52.788;41.368;2022-11-20T15:26:09;17.00;15.75;10.50
65383;PMS5003;51986;52.788;41.368;2022-11-20T15:28:46;28.50;24.25;15.00
65383;PMS5003;51986;52.788;41.368;2022-11-20T15:31:19;23.00;20.50;13.00
65383;PMS5003;51986;52.788;41.368;2022-11-20T15:33:48;18.00;15.50;13.00
65383;PMS5003;51986;52.788;41.368;2022-11-20T15:36:15;13.00;10.00;8.25
65383;PMS5003;51986;52.788;41.368;2022-11-20T15:38:42;15.00;12.00;8.50
65383;PMS5003;51986;52.788;41.368;2022-11-20T15:41:09;13.00;12.00;6.25
65383;PMS5003;51986;52.788;41.368;2022-11-20T15:43:36;12.00;11.00;5.00
65383;PMS5003;51986;52.788;41.368;2022-11-20T15:46:04;12.00;11.00;4.25
65383;PMS5003;51986;52.788;41.368;2022-11-20T15:48:36;9.50;7.50;1.75
65383;PMS5003;51986;52.788;41.368;2022-11-20T15:51:21;14.25;12.00;9.25
65383;PMS5003;51986;52.788;41.368;2022-11-20T15:53:56;16.50;14.50;11.50
65383;PMS5003;51986;52.788;41.368;2022-11-20T15:56:24;12.00;10.00;4.75
65383;PMS5003;51986;52.788;41.368;2022-11-20T15:58:52;11.00;10.00;4.25